map of SUF home
SUF - Airport
Location
City:  Lamezia Terme, Calabria, Italy
Near (Alt.):Catanzaro
Name:Lamezia Terme Airport
ICAO:LICA
IATA:SUF

Details
Type:Airport (Aerodrome, Airfield)
Use:Public/Civil, International (customs port of entry)
Latitude:3854'19"N (38.905394)
Longitude:1614'32"E (16.242269)
Datum:WGS 1984
Elevation:39 ft (12 m)
Variation:3.45E (WMM2015 magnetic declination)
0.10 annual change
Runways:1
Longest:7920 × 148 ft (2414 × 45 m), paved

Time
Time Zone:UTC+1 (DST+2)
Local Time:

Weather
METAR:LICA 221250Z 27010KT 230V300 9999 FEW030 27/20 Q1018
TAF:LICA 221100Z 2212/2312 27012KT 9999 SCT020
BECMG 2218/2220 VRB04KT
BECMG 2307/2309 27012KT

Related Locations
Nearby:
Farthest:CHT: 11698 mi / 18826 km
Waitangi [Tuuta], CIT, NZ

Find:

   beyond  
but within

Other Information
Maps:
NOTAMs:
Links:
Sources:

  
flag of Italy
flag of Calabria
  

Sectional Chart

Flight Planning
at skyvector.com

Satellite Image

Google Maps Satellite view

 

Copyright © 2004-2017 Karl L. Swartz. All rights reserved.
The Great Circle Mapper name and logo are trademarks of the Great Circle Mapper.
All other trademarks mentioned herein belong to their respective owners.
Please see credits for attibutions and further copyright information.

  Follow gcmap on Facebook Follow gcmap on Twitter Follow gcmap on Google+ GCmap on LinkedIn

hCard Microformat

Geo Microformat